Chathill, United Kingdom
Current Conditions -  °F | °C
As of 2:50 AM on Tuesday 21 Oct 2014 (Local Time) from EGQM Reporting Station
Broken Clouds Broken Clouds  
Wind Chill: 55°   Ceiling: 2400
Heat Index: 55°   Visibility: 6mi
Dew Point: 52°   Wind: 13mph
Humidity: 88%   Direction: 170°S
Pressure: 29.32"   Gusts: NA
Location:  55.55°N, 1.67°W
Report Text: EGQM 210150Z AUTO 17011KT 9999 BKN024/// 13/11 Q0993 RERA
Loading
Personal Weather Stations






























Interactive Weather Map
Tropical Storm Tracking
New forecast layout! Learn more

10-Day Weather Forecast

Advertisements
Track Severe Weather on mobile